createdAt,value
2022-10-19T00:00:20.332Z,40.68
2022-10-19T00:01:04.009Z,40.84
2022-10-19T00:01:36.858Z,40.89
2022-10-19T00:02:09.118Z,41.01
2022-10-19T00:02:43.822Z,41.10
2022-10-19T00:03:19.408Z,40.93
2022-10-19T00:03:55.907Z,41.14
2022-10-19T00:04:31.146Z,40.91
2022-10-19T00:05:03.276Z,40.77
2022-10-19T00:05:35.463Z,40.92
2022-10-19T00:06:17.579Z,40.88
2022-10-19T00:06:49.707Z,41.19
2022-10-19T00:07:21.849Z,41.05
2022-10-19T00:07:56.491Z,40.91
2022-10-19T00:08:28.542Z,41.08
2022-10-19T00:09:02.999Z,41.19
2022-10-19T00:09:37.693Z,41.28
2022-10-19T00:10:10.364Z,41.43
2022-10-19T00:10:42.544Z,41.21
2022-10-19T00:11:17.222Z,41.16
2022-10-19T00:11:50.878Z,41.26
2022-10-19T00:12:22.958Z,41.56
2022-10-19T00:12:57.757Z,41.59
2022-10-19T00:13:29.848Z,41.59
2022-10-19T00:14:02.288Z,41.39
2022-10-19T00:14:36.983Z,41.09
2022-10-19T00:15:09.894Z,41.52
2022-10-19T00:15:42.332Z,41.18
2022-10-19T00:16:19.051Z,41.31
2022-10-19T00:16:52.911Z,41.75
2022-10-19T00:17:25.080Z,41.79
2022-10-19T00:17:59.710Z,41.27
2022-10-19T00:18:31.787Z,41.81
2022-10-19T00:19:06.293Z,41.98
2022-10-19T00:19:40.938Z,41.45
2022-10-19T00:20:13.451Z,41.66
2022-10-19T00:20:45.522Z,41.79
2022-10-19T00:21:22.982Z,41.52
2022-10-19T00:21:56.438Z,42.01
2022-10-19T00:22:28.729Z,41.86
2022-10-19T00:23:03.378Z,41.94
2022-10-19T00:23:35.737Z,41.80
2022-10-19T00:24:08.761Z,42.09
2022-10-19T00:24:43.439Z,42.20
2022-10-19T00:25:15.773Z,41.87
2022-10-19T00:25:55.458Z,41.94
2022-10-19T00:26:30.207Z,42.51
2022-10-19T00:27:02.328Z,42.36
2022-10-19T00:27:34.567Z,41.95
2022-10-19T00:28:09.250Z,42.13
2022-10-19T00:28:42.378Z,42.25
2022-10-19T00:29:15.766Z,42.33
2022-10-19T00:29:50.663Z,41.96
2022-10-19T00:30:22.797Z,42.16
2022-10-19T00:30:54.972Z,41.98
2022-10-19T00:31:30.059Z,42.36
2022-10-19T00:32:02.130Z,42.35
2022-10-19T00:32:34.509Z,42.03
2022-10-19T00:33:06.794Z,42.31
2022-10-19T00:33:41.656Z,41.97
2022-10-19T00:34:13.800Z,42.51
2022-10-19T00:34:45.942Z,42.36
2022-10-19T00:35:20.750Z,42.53
2022-10-19T00:35:53.161Z,42.19
2022-10-19T00:36:33.009Z,42.26
2022-10-19T00:37:05.090Z,42.25
2022-10-19T00:37:37.172Z,42.35
2022-10-19T00:38:11.885Z,42.66
2022-10-19T00:38:43.989Z,42.17
2022-10-19T00:39:17.872Z,42.73
2022-10-19T00:39:52.666Z,42.72
2022-10-19T00:40:24.758Z,42.75
2022-10-19T00:40:57.197Z,42.69
2022-10-19T00:41:34.347Z,42.62
2022-10-19T00:42:06.678Z,42.63
2022-10-19T00:42:38.835Z,42.83
2022-10-19T00:43:14.240Z,42.50
2022-10-19T00:44:00.361Z,43.01
2022-10-19T00:45:14.106Z,43.03
2022-10-19T00:45:49.162Z,43.30
2022-10-19T00:46:21.839Z,43.27
2022-10-19T00:46:54.280Z,43.16
2022-10-19T00:47:27.027Z,42.83
2022-10-19T00:48:01.701Z,42.97
2022-10-19T00:48:33.864Z,43.12
2022-10-19T00:49:10.883Z,43.00
2022-10-19T00:49:48.178Z,43.35
2022-10-19T00:50:20.555Z,43.59
2022-10-19T00:50:54.590Z,43.23
2022-10-19T00:51:32.941Z,43.40
2022-10-19T00:52:07.983Z,43.45
2022-10-19T00:52:40.274Z,43.89
2022-10-19T00:53:15.246Z,43.36
2022-10-19T00:53:47.572Z,43.43
2022-10-19T00:54:20.305Z,43.37
2022-10-19T00:54:56.601Z,43.63
2022-10-19T00:55:28.901Z,43.60
2022-10-19T00:56:06.146Z,43.71
2022-10-19T00:56:43.778Z,44.09
2022-10-19T00:57:16.381Z,43.76
2022-10-19T00:57:48.560Z,43.92
2022-10-19T00:58:23.394Z,43.62
2022-10-19T00:58:55.943Z,43.91
2022-10-19T00:59:31.847Z,43.79
2022-10-19T01:00:09.883Z,44.20
2022-10-19T01:00:42.035Z,43.75
2022-10-19T01:01:17.883Z,44.03
2022-10-19T01:01:53.176Z,43.92
2022-10-19T01:02:25.295Z,43.87
2022-10-19T01:02:58.941Z,44.32
2022-10-19T01:03:33.751Z,44.50
2022-10-19T01:04:06.192Z,44.33
2022-10-19T01:04:46.213Z,44.26
2022-10-19T01:05:21.703Z,44.36
2022-10-19T01:05:53.944Z,44.37
2022-10-19T01:06:28.853Z,44.57
2022-10-19T01:07:04.728Z,44.34
2022-10-19T01:07:37.290Z,44.26
2022-10-19T01:08:11.474Z,44.44
2022-10-19T01:08:46.429Z,44.42
2022-10-19T01:09:18.597Z,44.30
2022-10-19T01:09:51.098Z,44.55
2022-10-19T01:10:34.267Z,44.37
2022-10-19T01:11:17.277Z,44.63
2022-10-19T01:11:59.642Z,44.65
2022-10-19T01:12:51.301Z,44.50
2022-10-19T01:13:38.374Z,44.91
2022-10-19T01:14:28.846Z,44.91
2022-10-19T01:15:11.251Z,45.08
2022-10-19T01:16:53.767Z,45.01
2022-10-19T01:17:39.861Z,45.08
2022-10-19T01:18:19.298Z,45.07
2022-10-19T01:19:01.095Z,45.36
2022-10-19T01:20:00.550Z,45.19
2022-10-19T01:21:07.817Z,45.21
2022-10-19T01:21:48.347Z,45.76
2022-10-19T01:22:38.263Z,45.88
2022-10-19T01:23:30.964Z,45.80
2022-10-19T01:24:38.453Z,45.31
2022-10-19T01:25:22.327Z,45.71
2022-10-19T01:26:04.586Z,45.50
2022-10-19T01:27:01.963Z,45.79
2022-10-19T01:27:41.340Z,45.96
2022-10-19T01:28:28.722Z,45.87
2022-10-19T01:29:14.329Z,46.45
2022-10-19T01:30:02.041Z,46.60
2022-10-19T01:30:48.078Z,46.21
2022-10-19T01:31:28.033Z,46.21
2022-10-19T01:32:05.203Z,45.96
2022-10-19T01:32:56.018Z,45.99
2022-10-19T01:33:37.663Z,46.31
2022-10-19T01:34:19.491Z,46.28
2022-10-19T01:35:00.144Z,46.21
2022-10-19T01:35:38.409Z,46.34
2022-10-19T01:36:35.659Z,46.70
2022-10-19T01:37:17.070Z,46.53
2022-10-19T01:37:54.060Z,46.76
2022-10-19T01:38:37.583Z,46.68
2022-10-19T01:39:13.591Z,47.02
2022-10-19T01:39:52.701Z,46.57
2022-10-19T01:40:33.767Z,47.02
2022-10-19T01:41:15.030Z,47.20
2022-10-19T01:41:58.288Z,47.29
2022-10-19T01:42:36.162Z,47.03
2022-10-19T01:43:14.978Z,47.30
2022-10-19T01:43:56.822Z,46.87
2022-10-19T01:44:37.074Z,47.15
2022-10-19T01:45:17.389Z,46.89
2022-10-19T01:45:55.363Z,47.14
2022-10-19T01:46:32.489Z,47.42
2022-10-19T01:47:11.177Z,47.24
2022-10-19T01:47:50.510Z,47.38
2022-10-19T01:48:26.265Z,47.21
2022-10-19T01:49:06.052Z,47.41
2022-10-19T01:49:42.395Z,48.00
2022-10-19T01:50:19.347Z,47.70
2022-10-19T01:51:00.659Z,47.64
2022-10-19T01:51:36.280Z,47.78
2022-10-19T01:52:11.251Z,47.97
2022-10-19T01:52:46.735Z,47.65
2022-10-19T01:53:20.670Z,47.99
2022-10-19T01:53:57.519Z,47.78
2022-10-19T01:54:37.055Z,47.72
2022-10-19T01:55:11.937Z,47.85
2022-10-19T01:55:47.978Z,47.90
2022-10-19T01:56:26.817Z,47.84
2022-10-19T01:57:02.048Z,48.29
2022-10-19T01:57:38.941Z,48.20
2022-10-19T01:58:19.269Z,48.44
2022-10-19T01:58:54.252Z,48.28
2022-10-19T01:59:30.082Z,48.32
2022-10-19T02:00:07.614Z,48.16
2022-10-19T02:00:52.827Z,48.60
2022-10-19T02:01:30.495Z,48.47
2022-10-19T02:02:05.584Z,48.23
2022-10-19T02:02:42.822Z,48.46
2022-10-19T02:03:18.605Z,48.32
2022-10-19T02:03:52.306Z,48.44
2022-10-19T02:04:28.657Z,48.84
2022-10-19T02:05:03.368Z,48.55
2022-10-19T02:05:37.176Z,48.66
2022-10-19T02:06:14.490Z,48.42
2022-10-19T02:06:47.176Z,48.77
2022-10-19T02:07:22.977Z,48.98
2022-10-19T02:08:01.563Z,48.81
2022-10-19T02:08:40.684Z,48.93
2022-10-19T02:09:18.234Z,48.93
2022-10-19T02:09:53.264Z,49.31
2022-10-19T02:10:26.558Z,49.38
2022-10-19T02:11:00.119Z,49.18
2022-10-19T02:11:35.971Z,49.38
2022-10-19T02:12:10.734Z,49.37
2022-10-19T02:12:44.177Z,49.15
2022-10-19T02:13:19.958Z,49.69
2022-10-19T02:13:59.298Z,49.35
2022-10-19T02:14:37.631Z,49.58
2022-10-19T02:15:12.194Z,49.40
2022-10-19T02:15:49.587Z,49.76
2022-10-19T02:16:30.276Z,49.54
2022-10-19T02:17:06.290Z,49.82
2022-10-19T02:17:44.328Z,49.65
2022-10-19T02:18:23.535Z,49.77
2022-10-19T02:18:57.824Z,49.69
2022-10-19T02:19:32.637Z,49.88
2022-10-19T02:20:06.125Z,49.61
2022-10-19T02:20:38.212Z,49.79
2022-10-19T02:21:10.676Z,50.02
2022-10-19T02:21:45.403Z,49.97
2022-10-19T02:22:17.494Z,50.05
2022-10-19T02:22:50.246Z,50.32
2022-10-19T02:23:28.565Z,49.95
2022-10-19T02:24:00.730Z,50.03
2022-10-19T02:24:32.958Z,50.34
2022-10-19T02:25:09.534Z,50.09
2022-10-19T02:25:41.678Z,50.42
2022-10-19T02:26:13.848Z,50.06
2022-10-19T02:26:49.121Z,50.11
2022-10-19T02:27:21.829Z,50.86
2022-10-19T02:27:54.017Z,50.32
2022-10-19T02:28:29.302Z,50.62
2022-10-19T02:29:01.762Z,51.18
2022-10-19T02:29:34.898Z,50.33
2022-10-19T02:30:11.407Z,50.39
2022-10-19T02:30:43.636Z,50.71
2022-10-19T02:31:18.365Z,50.97
2022-10-19T02:31:53.053Z,51.01
2022-10-19T02:32:26.390Z,51.22
2022-10-19T02:32:58.499Z,51.14
2022-10-19T02:33:33.768Z,50.86
2022-10-19T02:34:06.442Z,50.90
2022-10-19T02:34:39.754Z,51.04
2022-10-19T02:35:17.366Z,51.10
2022-10-19T02:35:49.907Z,50.98
2022-10-19T02:36:22.355Z,51.27
2022-10-19T02:36:57.395Z,51.07
2022-10-19T02:37:29.815Z,51.18
2022-10-19T02:38:04.147Z,51.19
2022-10-19T02:38:39.111Z,51.54
2022-10-19T02:39:11.380Z,51.24
2022-10-19T02:39:43.471Z,51.56
2022-10-19T02:40:18.334Z,51.44
2022-10-19T02:40:57.708Z,51.66
2022-10-19T02:41:34.950Z,51.45
2022-10-19T02:42:14.838Z,51.73
2022-10-19T02:42:52.771Z,51.79
2022-10-19T02:43:27.406Z,51.87
2022-10-19T02:44:07.910Z,51.49
2022-10-19T02:44:44.550Z,52.02
2022-10-19T02:45:21.902Z,51.67
2022-10-19T02:46:03.131Z,52.04
2022-10-19T02:46:43.630Z,52.61
2022-10-19T02:47:19.309Z,52.26
2022-10-19T02:47:57.615Z,51.98
2022-10-19T02:48:32.400Z,52.10
2022-10-19T02:49:06.956Z,52.27
2022-10-19T02:49:42.218Z,52.37
2022-10-19T02:50:14.599Z,52.40
2022-10-19T02:50:47.875Z,52.38
2022-10-19T02:51:36.926Z,52.59
2022-10-19T02:52:10.807Z,52.46
2022-10-19T02:52:42.946Z,52.46
2022-10-19T02:53:18.026Z,52.63
2022-10-19T02:53:50.123Z,52.40
2022-10-19T02:54:22.381Z,52.26
2022-10-19T02:54:57.014Z,52.43
2022-10-19T02:55:30.206Z,52.31
2022-10-19T02:56:02.342Z,52.71
2022-10-19T02:56:38.181Z,52.78
2022-10-19T02:57:16.586Z,52.49
2022-10-19T02:57:48.654Z,52.77
2022-10-19T02:58:23.756Z,52.70
2022-10-19T02:58:56.186Z,53.11
2022-10-19T02:59:29.239Z,52.66
2022-10-19T03:00:04.049Z,52.58
2022-10-19T03:00:36.389Z,52.46
2022-10-19T03:01:08.568Z,52.70
2022-10-19T03:01:43.235Z,52.86
2022-10-19T03:02:18.746Z,52.71
2022-10-19T03:02:50.857Z,53.27
2022-10-19T03:03:22.935Z,53.23
2022-10-19T03:03:55.087Z,53.13
2022-10-19T03:04:29.814Z,52.94
2022-10-19T03:05:02.019Z,52.96
2022-10-19T03:05:34.118Z,53.07
2022-10-19T03:06:08.761Z,53.40
2022-10-19T03:06:40.878Z,53.10
2022-10-19T03:07:15.983Z,53.07
2022-10-19T03:07:50.650Z,53.26
2022-10-19T03:08:22.706Z,53.17
2022-10-19T03:08:54.793Z,53.52
2022-10-19T03:09:29.599Z,53.53
2022-10-19T03:10:01.845Z,53.37
2022-10-19T03:10:34.099Z,53.30
2022-10-19T03:11:08.896Z,53.78
2022-10-19T03:11:40.962Z,53.47
2022-10-19T03:12:13.689Z,53.90
2022-10-19T03:12:48.354Z,53.57
2022-10-19T03:13:20.435Z,53.57
2022-10-19T03:13:52.659Z,53.69
2022-10-19T03:14:27.315Z,53.71
2022-10-19T03:14:59.385Z,53.78
2022-10-19T03:15:31.529Z,53.71
2022-10-19T03:16:11.657Z,53.95
2022-10-19T03:16:46.319Z,53.49
2022-10-19T03:17:18.566Z,53.78
2022-10-19T03:17:55.658Z,53.97
2022-10-19T03:18:27.727Z,54.16
2022-10-19T03:18:59.795Z,54.23
2022-10-19T03:19:34.571Z,54.07
2022-10-19T03:20:07.991Z,53.53
2022-10-19T03:20:40.082Z,53.54
2022-10-19T03:21:16.355Z,53.69
2022-10-19T03:21:48.450Z,53.62
2022-10-19T03:22:20.545Z,54.14
2022-10-19T03:23:28.371Z,54.18
2022-10-19T03:24:01.298Z,54.25
2022-10-19T03:24:34.128Z,54.23
2022-10-19T03:25:09.958Z,53.88
2022-10-19T03:25:42.014Z,54.32
2022-10-19T03:26:15.880Z,54.36
2022-10-19T03:26:50.539Z,54.43
2022-10-19T03:27:22.601Z,54.11
2022-10-19T03:27:54.663Z,54.14
2022-10-19T03:28:26.788Z,54.00
2022-10-19T03:29:01.602Z,53.85
2022-10-19T03:29:33.718Z,54.25
2022-10-19T03:30:06.758Z,54.00
2022-10-19T03:30:41.413Z,54.27
2022-10-19T03:31:13.551Z,54.42
2022-10-19T03:31:48.197Z,54.47
2022-10-19T03:32:22.865Z,54.25
2022-10-19T03:32:54.955Z,54.55
2022-10-19T03:33:27.138Z,54.63
2022-10-19T03:34:02.202Z,54.43
2022-10-19T03:34:34.299Z,54.46
2022-10-19T03:35:07.794Z,54.67
2022-10-19T03:35:42.418Z,54.88
2022-10-19T03:36:23.970Z,55.23
2022-10-19T03:36:56.760Z,55.05
2022-10-19T03:37:28.838Z,55.11
2022-10-19T03:38:03.534Z,55.26
2022-10-19T03:38:35.703Z,55.09
2022-10-19T03:39:10.596Z,55.58
2022-10-19T03:39:45.313Z,55.28
2022-10-19T03:40:17.491Z,55.26
2022-10-19T03:40:49.626Z,55.23
2022-10-19T03:41:23.129Z,54.97
2022-10-19T03:41:57.794Z,55.31
2022-10-19T03:42:29.974Z,55.67
2022-10-19T03:43:02.038Z,55.51
2022-10-19T03:43:37.034Z,55.29
2022-10-19T03:44:10.701Z,55.40
2022-10-19T03:44:45.402Z,55.50
2022-10-19T03:45:17.476Z,55.74
2022-10-19T03:45:49.539Z,55.67
2022-10-19T03:46:25.073Z,55.60
2022-10-19T03:46:59.739Z,55.91
2022-10-19T03:47:32.119Z,56.00
2022-10-19T03:48:07.616Z,55.64
2022-10-19T03:48:39.746Z,55.84
2022-10-19T03:49:12.206Z,55.83
2022-10-19T03:49:48.479Z,55.75
2022-10-19T03:50:21.314Z,55.61
2022-10-19T03:50:59.042Z,55.52
2022-10-19T03:51:34.517Z,56.17
2022-10-19T03:52:06.601Z,55.92
2022-10-19T03:52:38.675Z,55.89
2022-10-19T03:53:13.318Z,56.08
2022-10-19T03:53:46.663Z,56.30
2022-10-19T03:54:19.930Z,56.16
2022-10-19T03:54:57.077Z,56.59
2022-10-19T03:55:30.558Z,56.53
2022-10-19T03:56:04.918Z,56.59
2022-10-19T03:56:39.586Z,56.64
2022-10-19T03:57:12.647Z,56.18
2022-10-19T03:57:44.748Z,56.65
2022-10-19T03:58:16.841Z,56.87
2022-10-19T03:58:52.781Z,56.72
2022-10-19T03:59:24.972Z,56.76
2022-10-19T03:59:57.135Z,56.62
2022-10-19T04:00:31.839Z,56.70
2022-10-19T04:01:08.653Z,56.71
2022-10-19T04:01:42.819Z,57.13
2022-10-19T04:02:20.073Z,56.77
2022-10-19T04:02:52.137Z,56.97
2022-10-19T04:03:24.250Z,56.92
2022-10-19T04:04:00.186Z,56.90
2022-10-19T04:04:32.366Z,56.90
2022-10-19T04:05:05.397Z,57.38
2022-10-19T04:05:40.064Z,57.14
2022-10-19T04:06:18.216Z,57.34
2022-10-19T04:06:54.006Z,57.08
2022-10-19T04:07:28.716Z,57.21
2022-10-19T04:08:00.848Z,57.60
2022-10-19T04:08:32.981Z,57.53
2022-10-19T04:09:08.889Z,57.28
2022-10-19T04:09:41.084Z,57.89
2022-10-19T04:10:13.206Z,57.91
2022-10-19T04:10:47.939Z,57.87
2022-10-19T04:11:22.592Z,57.57
2022-10-19T04:11:57.328Z,57.67
2022-10-19T04:12:29.460Z,57.82
2022-10-19T04:13:01.546Z,57.93
2022-10-19T04:13:37.895Z,57.73
2022-10-19T04:14:15.962Z,58.07
2022-10-19T04:14:58.011Z,58.20
2022-10-19T04:15:30.268Z,58.32
2022-10-19T04:16:02.344Z,58.63
2022-10-19T04:16:37.543Z,58.64
2022-10-19T04:17:10.738Z,58.64
2022-10-19T04:17:48.520Z,58.81
2022-10-19T04:18:23.358Z,58.72
2022-10-19T04:18:55.929Z,59.60
2022-10-19T04:19:28.053Z,59.00
2022-10-19T04:20:02.752Z,59.04
2022-10-19T04:20:34.966Z,59.68
2022-10-19T04:21:07.450Z,60.44
2022-10-19T04:21:43.867Z,60.46
2022-10-19T04:22:16.133Z,59.92
2022-10-19T04:22:48.185Z,60.16
2022-10-19T04:23:22.831Z,60.28
2022-10-19T04:23:59.987Z,60.40
2022-10-19T04:24:34.641Z,59.86
2022-10-19T04:25:09.700Z,60.08
2022-10-19T04:25:41.916Z,60.82
2022-10-19T04:26:14.010Z,60.50
2022-10-19T04:26:51.049Z,60.43
2022-10-19T04:27:23.158Z,60.49
2022-10-19T04:27:55.252Z,60.79
2022-10-19T04:28:30.286Z,60.78
2022-10-19T04:29:02.513Z,60.98
2022-10-19T04:29:37.425Z,61.63
2022-10-19T04:30:10.644Z,61.76
2022-10-19T04:30:42.756Z,61.89
2022-10-19T04:31:17.620Z,61.79
2022-10-19T04:31:50.787Z,61.69
2022-10-19T04:32:22.883Z,62.27
2022-10-19T04:33:00.217Z,62.00
2022-10-19T04:33:32.697Z,61.84
2022-10-19T04:34:05.346Z,61.86
2022-10-19T04:34:40.238Z,62.11
2022-10-19T04:35:12.464Z,62.91
2022-10-19T04:35:44.572Z,62.25
2022-10-19T04:36:19.271Z,62.97
2022-10-19T04:36:51.353Z,62.32
2022-10-19T04:37:23.462Z,62.57
2022-10-19T04:37:58.097Z,61.90
2022-10-19T04:38:30.945Z,62.37
2022-10-19T04:39:03.343Z,62.32
2022-10-19T04:39:40.850Z,62.50
2022-10-19T04:40:15.046Z,62.54
2022-10-19T04:40:47.397Z,63.15
2022-10-19T04:41:23.935Z,63.53
2022-10-19T04:41:56.007Z,63.29
2022-10-19T04:42:28.113Z,63.43
2022-10-19T04:43:02.739Z,64.26
2022-10-19T04:43:35.608Z,63.68
2022-10-19T04:44:07.889Z,63.60
2022-10-19T04:44:42.557Z,63.14
2022-10-19T04:45:14.877Z,63.10
2022-10-19T04:45:46.944Z,63.17
2022-10-19T04:46:22.763Z,63.14
2022-10-19T04:46:54.830Z,63.32
2022-10-19T04:47:26.922Z,63.46
2022-10-19T04:48:04.410Z,63.42
2022-10-19T04:48:38.129Z,63.58
2022-10-19T04:49:10.452Z,63.67
2022-10-19T04:49:45.328Z,63.61
2022-10-19T04:50:17.630Z,63.50
2022-10-19T04:50:49.909Z,63.57
2022-10-19T04:51:29.942Z,63.34
2022-10-19T04:52:02.107Z,63.51
2022-10-19T04:52:35.347Z,63.71
2022-10-19T04:53:10.072Z,63.91
2022-10-19T04:53:43.266Z,64.24
2022-10-19T04:54:15.436Z,63.92
2022-10-19T04:54:50.194Z,64.70
2022-10-19T04:55:22.274Z,64.41
2022-10-19T04:55:54.467Z,64.21
2022-10-19T04:56:31.039Z,64.38
2022-10-19T04:57:03.999Z,64.45
2022-10-19T04:57:36.506Z,64.44
2022-10-19T04:58:11.644Z,65.13
2022-10-19T04:58:44.385Z,64.77
2022-10-19T04:59:16.449Z,64.80
2022-10-19T04:59:51.095Z,64.86
2022-10-19T05:00:23.170Z,64.64
2022-10-19T05:00:55.473Z,64.99
2022-10-19T05:01:32.482Z,64.69
2022-10-19T05:02:04.631Z,65.46
2022-10-19T05:02:39.307Z,65.17
2022-10-19T05:03:14.626Z,65.14
2022-10-19T05:03:47.345Z,65.43
2022-10-19T05:04:22.007Z,66.13
2022-10-19T05:04:54.077Z,65.54
2022-10-19T05:05:26.910Z,65.58
2022-10-19T05:05:59.383Z,65.36
2022-10-19T05:06:34.851Z,65.71
2022-10-19T05:07:06.925Z,65.54
2022-10-19T05:07:39.102Z,65.46
2022-10-19T05:08:14.286Z,65.58
2022-10-19T05:08:48.431Z,65.75
2022-10-19T05:09:20.557Z,65.39
2022-10-19T05:09:55.297Z,65.30
2022-10-19T05:10:27.467Z,65.42
2022-10-19T05:11:03.177Z,65.42
2022-10-19T05:11:37.870Z,65.49
2022-10-19T05:12:10.000Z,65.53
2022-10-19T05:12:42.090Z,65.58
2022-10-19T05:13:16.721Z,65.71
2022-10-19T05:13:49.116Z,66.12
2022-10-19T05:14:24.070Z,65.52
2022-10-19T05:14:56.182Z,65.86
2022-10-19T05:15:28.445Z,65.82
2022-10-19T05:16:05.015Z,65.78
2022-10-19T05:16:37.159Z,65.76
2022-10-19T05:17:12.846Z,65.69
2022-10-19T05:17:44.922Z,66.01
2022-10-19T05:18:19.586Z,66.34
2022-10-19T05:18:56.820Z,66.78
2022-10-19T05:19:28.951Z,66.68
2022-10-19T05:20:03.630Z,66.95
2022-10-19T05:20:35.727Z,66.74
2022-10-19T05:21:09.530Z,66.63
2022-10-19T05:21:44.205Z,66.73
2022-10-19T05:22:16.359Z,66.47
2022-10-19T05:22:48.551Z,67.62
2022-10-19T05:23:23.276Z,67.22
2022-10-19T05:23:56.660Z,67.73
2022-10-19T05:24:28.741Z,67.90
2022-10-19T05:25:03.407Z,67.51
2022-10-19T05:25:35.532Z,67.43
2022-10-19T05:26:09.968Z,67.45
2022-10-19T05:26:44.626Z,67.57
2022-10-19T05:27:16.782Z,67.99
2022-10-19T05:27:51.565Z,68.25
2022-10-19T05:28:26.298Z,67.64
2022-10-19T05:29:01.952Z,67.48
2022-10-19T05:29:36.793Z,67.92
2022-10-19T05:30:10.021Z,67.77
2022-10-19T05:30:46.638Z,68.14
2022-10-19T05:31:23.675Z,67.68
2022-10-19T05:31:55.765Z,67.49
2022-10-19T05:32:28.219Z,67.73
2022-10-19T05:33:02.882Z,67.40
2022-10-19T05:33:38.642Z,67.63
2022-10-19T05:34:13.373Z,67.63
2022-10-19T05:34:45.474Z,67.75
2022-10-19T05:35:20.088Z,67.59
2022-10-19T05:35:57.112Z,68.10
2022-10-19T05:36:34.506Z,67.58
2022-10-19T05:37:06.653Z,67.76
2022-10-19T05:37:41.363Z,68.18
2022-10-19T05:38:13.485Z,67.66
2022-10-19T05:38:47.171Z,67.69
2022-10-19T05:39:21.915Z,67.38
2022-10-19T05:39:54.687Z,67.52
2022-10-19T05:40:26.778Z,67.73
2022-10-19T05:41:01.450Z,67.55
2022-10-19T05:41:33.757Z,67.46
2022-10-19T05:42:08.417Z,67.66
2022-10-19T05:42:40.553Z,67.11
2022-10-19T05:43:12.676Z,67.52
2022-10-19T05:43:47.799Z,68.25
2022-10-19T05:44:21.739Z,67.84
2022-10-19T05:44:53.807Z,67.36
2022-10-19T05:45:28.490Z,67.30
2022-10-19T05:46:03.957Z,67.66
2022-10-19T05:46:39.450Z,67.50
2022-10-19T05:47:11.515Z,67.40
2022-10-19T05:47:43.580Z,67.34
2022-10-19T05:48:18.392Z,67.54
2022-10-19T05:48:54.768Z,67.39
2022-10-19T05:49:29.614Z,67.45
2022-10-19T05:50:01.741Z,67.25
2022-10-19T05:50:33.859Z,67.44
2022-10-19T05:51:10.943Z,67.34
2022-10-19T05:51:43.514Z,67.38
2022-10-19T05:52:17.800Z,67.38
2022-10-19T05:52:52.443Z,67.63
2022-10-19T05:53:24.650Z,67.31
2022-10-19T05:53:57.516Z,67.32
2022-10-19T05:54:32.369Z,67.49
2022-10-19T05:55:05.348Z,67.37
2022-10-19T05:55:37.527Z,67.29
2022-10-19T05:56:16.666Z,67.18
2022-10-19T05:56:49.029Z,67.25
2022-10-19T05:57:23.733Z,67.25
2022-10-19T05:57:55.814Z,67.31
2022-10-19T05:58:27.963Z,67.50
2022-10-19T05:59:05.578Z,67.28
2022-10-19T05:59:37.725Z,67.29
2022-10-19T06:00:11.854Z,67.11
2022-10-19T06:00:46.874Z,67.40
2022-10-19T06:01:20.186Z,67.61
2022-10-19T06:01:54.955Z,67.27
2022-10-19T06:02:27.127Z,67.27
2022-10-19T06:02:59.354Z,67.19
2022-10-19T06:03:34.206Z,67.24
2022-10-19T06:04:10.941Z,67.33
2022-10-19T06:04:45.714Z,67.48
2022-10-19T06:05:17.827Z,67.28
2022-10-19T06:05:50.388Z,67.41
2022-10-19T06:06:26.149Z,67.47
2022-10-19T06:06:58.205Z,67.33
2022-10-19T06:07:30.425Z,67.51
2022-10-19T06:08:02.502Z,67.30
2022-10-19T06:08:38.258Z,67.05
2022-10-19T06:09:10.767Z,67.51
2022-10-19T06:09:43.002Z,67.27
2022-10-19T06:10:17.830Z,67.28
2022-10-19T06:10:50.527Z,67.41
2022-10-19T06:11:27.675Z,67.26
2022-10-19T06:11:59.814Z,67.32
2022-10-19T06:12:34.544Z,67.05
2022-10-19T06:13:06.684Z,67.61
2022-10-19T06:13:39.595Z,67.33
2022-10-19T06:14:17.148Z,67.29
2022-10-19T06:14:51.354Z,68.00
2022-10-19T06:15:23.433Z,67.90
2022-10-19T06:15:58.135Z,67.45
2022-10-19T06:16:31.487Z,67.54
2022-10-19T06:17:06.800Z,67.56
2022-10-19T06:17:38.875Z,67.93
2022-10-19T06:18:13.223Z,68.33
2022-10-19T06:18:48.782Z,67.68
2022-10-19T06:19:23.525Z,67.55
2022-10-19T06:19:58.213Z,67.75
2022-10-19T06:20:30.326Z,67.53
2022-10-19T06:21:04.073Z,68.32
2022-10-19T06:21:41.824Z,67.94
2022-10-19T06:22:17.047Z,67.74
2022-10-19T06:22:51.708Z,67.64
2022-10-19T06:23:23.782Z,67.55
2022-10-19T06:23:57.944Z,67.47
2022-10-19T06:24:32.859Z,67.68
2022-10-19T06:25:05.754Z,67.90
2022-10-19T06:25:37.911Z,67.53
2022-10-19T06:26:15.333Z,67.25
2022-10-19T06:26:47.412Z,67.54
2022-10-19T06:27:22.120Z,67.60
2022-10-19T06:27:54.253Z,67.10
2022-10-19T06:28:26.420Z,67.17
2022-10-19T06:29:03.903Z,67.09
2022-10-19T06:29:36.528Z,67.12
2022-10-19T06:30:09.938Z,67.25
2022-10-19T06:30:44.695Z,67.14
2022-10-19T06:31:17.394Z,66.84
2022-10-19T06:31:49.493Z,67.07
2022-10-19T06:32:24.141Z,67.02
2022-10-19T06:32:56.318Z,67.26
2022-10-19T06:33:30.135Z,66.88
2022-10-19T06:34:05.317Z,66.61
2022-10-19T06:34:40.205Z,66.79
2022-10-19T06:35:12.318Z,66.87
2022-10-19T06:35:46.959Z,67.28
2022-10-19T06:36:21.191Z,66.65
2022-10-19T06:36:53.253Z,67.10
2022-10-19T06:37:27.925Z,66.90
2022-10-19T06:38:00.218Z,66.83
2022-10-19T06:38:32.451Z,66.94
2022-10-19T06:39:07.485Z,67.22
2022-10-19T06:39:39.745Z,66.65
2022-10-19T06:40:12.571Z,66.87
2022-10-19T06:40:49.129Z,66.83
2022-10-19T06:41:21.293Z,66.94
2022-10-19T06:41:56.010Z,66.97
2022-10-19T06:42:30.382Z,66.79
2022-10-19T06:43:02.727Z,66.60
2022-10-19T06:43:37.991Z,66.71
2022-10-19T06:44:10.122Z,66.43
2022-10-19T06:44:44.835Z,66.32
2022-10-19T06:45:17.037Z,66.74
2022-10-19T06:45:49.114Z,66.42
2022-10-19T06:46:26.148Z,66.07
2022-10-19T06:46:58.235Z,66.13
2022-10-19T06:47:33.380Z,66.61
2022-10-19T06:48:09.571Z,66.48
2022-10-19T06:48:41.715Z,66.30
2022-10-19T06:49:17.644Z,66.44
2022-10-19T06:49:52.282Z,66.03
2022-10-19T06:50:24.378Z,65.96
2022-10-19T06:50:59.795Z,66.22
2022-10-19T06:51:32.421Z,66.16
2022-10-19T06:52:07.811Z,65.75
2022-10-19T06:52:40.861Z,65.82
2022-10-19T06:53:15.799Z,65.81
2022-10-19T06:53:48.980Z,66.17
2022-10-19T06:54:25.776Z,66.21
2022-10-19T06:54:57.846Z,65.91
2022-10-19T06:55:32.509Z,65.97
2022-10-19T06:56:06.772Z,66.37
2022-10-19T06:56:41.510Z,65.84
2022-10-19T06:57:13.665Z,65.88
2022-10-19T06:57:45.749Z,65.91
2022-10-19T06:58:20.429Z,65.68
2022-10-19T06:58:53.202Z,65.64
2022-10-19T06:59:28.044Z,65.71
2022-10-19T07:00:00.135Z,65.89
2022-10-19T07:00:32.371Z,66.29
2022-10-19T07:01:09.226Z,65.97
2022-10-19T07:01:41.373Z,65.94
2022-10-19T07:02:13.694Z,66.04
2022-10-19T07:02:48.364Z,66.23
2022-10-19T07:03:20.430Z,65.72
2022-10-19T07:03:53.015Z,66.07
2022-10-19T07:04:27.770Z,65.73
2022-10-19T07:05:06.912Z,65.95
2022-10-19T07:05:41.872Z,66.03
2022-10-19T07:06:14.758Z,65.68
2022-10-19T07:06:49.424Z,65.51
2022-10-19T07:07:21.509Z,65.08
2022-10-19T07:07:53.603Z,64.99
2022-10-19T07:08:29.229Z,65.01
2022-10-19T07:09:02.738Z,64.90
2022-10-19T07:09:37.584Z,64.91
2022-10-19T07:10:10.168Z,65.04
2022-10-19T07:10:42.285Z,64.67
2022-10-19T07:11:19.498Z,64.80
2022-10-19T07:11:52.223Z,64.64
2022-10-19T07:12:24.415Z,64.48
2022-10-19T07:12:59.228Z,64.87
2022-10-19T07:13:31.666Z,64.73
2022-10-19T07:14:06.458Z,64.78
2022-10-19T07:14:39.800Z,65.02
2022-10-19T07:15:14.566Z,64.63
2022-10-19T07:15:47.150Z,65.07
2022-10-19T07:16:21.183Z,65.02
2022-10-19T07:16:56.354Z,64.93
2022-10-19T07:17:28.443Z,64.87
2022-10-19T07:18:00.532Z,64.54
2022-10-19T07:18:35.617Z,64.56
2022-10-19T07:19:07.711Z,64.44
2022-10-19T07:19:42.345Z,64.67
2022-10-19T07:20:17.135Z,64.83
2022-10-19T07:20:55.030Z,64.56
2022-10-19T07:21:29.675Z,64.53
2022-10-19T07:22:02.125Z,64.18
2022-10-19T07:22:34.289Z,64.48
2022-10-19T07:23:09.002Z,64.53
2022-10-19T07:23:43.043Z,64.38
2022-10-19T07:24:17.690Z,64.38
2022-10-19T07:24:49.846Z,64.14
2022-10-19T07:25:25.108Z,64.15
2022-10-19T07:26:01.805Z,64.00
2022-10-19T07:26:36.800Z,64.28
2022-10-19T07:27:08.988Z,64.44
2022-10-19T07:27:41.174Z,64.13
2022-10-19T07:28:16.017Z,63.87
2022-10-19T07:28:49.112Z,63.94
2022-10-19T07:29:23.782Z,63.97
2022-10-19T07:29:55.847Z,64.11
2022-10-19T07:30:28.012Z,63.73